Norfolk International Airport Norfolk US
ICAO: KORF
IATA: ORF
Category: Large
Scheduled Services: Yes

Elevation: 26 ft
TransAlt. 18000 ft.

Airport Communications:
APP:28.83
APP:118.9
ATIS:127.15
CLNC DEL:118.5
DEP:125.2
GND:121.9
LEESBURG RDO:116.9
TWR:120.8

KORF Zoom In..

Runways:

(A) RW 05 length 9001 ft width 150 ft
ILS 109.10 / hdg 47

(B) RW 14 length 4875 ft width 150 ft
---- / hdg 137

(C) RW 23 length 9001 ft width 150 ft
ILS 109.10 / hdg 227

(D) RW 32 length 4875 ft width 150 ft
---- / hdg 317

Location; KORF
Day. 22 / Time. 00.51 Zulu
* Altimeter: 30.38
* Temperature: 10° c. 50°f.
* Wind from: 130° Speed 04 kn.
Dewpoint: 02° c.
Visibility: 10 Statute Miles.
Clouds: Clear (automated report).

KORF 220051Z 13004KT 10SM CLR 10/02 A3038 RMK AO2 SLP288 T01000017


Wind From 130°
Speed 04 kn.

  YouTube Music Video
 
jpsmedia.com for Web Design  worldairports.se 2018   terms of use